sensor_id;sensor_type;location;lat;lon;timestamp;temperature;humidity
17879;DHT22;9065;51.050;13.758;2022-12-26T00:00:56;11.20;99.90
17879;DHT22;9065;51.050;13.758;2022-12-26T00:03:25;11.20;99.90
17879;DHT22;9065;51.050;13.758;2022-12-26T00:05:52;11.30;99.90
17879;DHT22;9065;51.050;13.758;2022-12-26T00:08:20;11.30;99.90
17879;DHT22;9065;51.050;13.758;2022-12-26T00:10:54;11.40;99.90
17879;DHT22;9065;51.050;13.758;2022-12-26T00:13:21;11.30;99.90
17879;DHT22;9065;51.050;13.758;2022-12-26T00:15:48;11.30;99.90
17879;DHT22;9065;51.050;13.758;2022-12-26T00:18:15;11.30;99.90
17879;DHT22;9065;51.050;13.758;2022-12-26T00:20:41;11.30;99.90
17879;DHT22;9065;51.050;13.758;2022-12-26T00:23:08;11.40;99.90
17879;DHT22;9065;51.050;13.758;2022-12-26T00:25:39;11.40;99.90
17879;DHT22;9065;51.050;13.758;2022-12-26T00:28:06;11.50;99.90
17879;DHT22;9065;51.050;13.758;2022-12-26T00:30:33;11.50;99.90
17879;DHT22;9065;51.050;13.758;2022-12-26T00:33:02;11.50;99.90
17879;DHT22;9065;51.050;13.758;2022-12-26T00:35:30;11.60;99.90
17879;DHT22;9065;51.050;13.758;2022-12-26T00:37:57;11.70;99.90
17879;DHT22;9065;51.050;13.758;2022-12-26T00:40:23;11.70;99.90
17879;DHT22;9065;51.050;13.758;2022-12-26T00:42:54;11.60;99.90
17879;DHT22;9065;51.050;13.758;2022-12-26T00:45:20;11.60;99.90
17879;DHT22;9065;51.050;13.758;2022-12-26T00:47:47;11.60;99.90
17879;DHT22;9065;51.050;13.758;2022-12-26T00:50:15;11.60;99.90
17879;DHT22;9065;51.050;13.758;2022-12-26T00:52:43;11.50;99.90
17879;DHT22;9065;51.050;13.758;2022-12-26T00:55:10;11.50;99.90
17879;DHT22;9065;51.050;13.758;2022-12-26T00:57:37;11.50;99.90
17879;DHT22;9065;51.050;13.758;2022-12-26T01:00:08;11.40;99.90
17879;DHT22;9065;51.050;13.758;2022-12-26T01:02:34;11.40;99.90
17879;DHT22;9065;51.050;13.758;2022-12-26T01:05:05;11.40;99.90
17879;DHT22;9065;51.050;13.758;2022-12-26T01:07:32;11.30;99.90
17879;DHT22;9065;51.050;13.758;2022-12-26T01:09:59;11.20;99.90
17879;DHT22;9065;51.050;13.758;2022-12-26T01:12:26;11.30;99.90
17879;DHT22;9065;51.050;13.758;2022-12-26T01:14:54;11.30;99.90
17879;DHT22;9065;51.050;13.758;2022-12-26T01:17:23;11.30;99.90
17879;DHT22;9065;51.050;13.758;2022-12-26T01:19:50;11.20;99.90
17879;DHT22;9065;51.050;13.758;2022-12-26T01:22:18;11.20;99.90
17879;DHT22;9065;51.050;13.758;2022-12-26T01:24:46;11.20;99.90
17879;DHT22;9065;51.050;13.758;2022-12-26T01:27:13;11.20;99.90
17879;DHT22;9065;51.050;13.758;2022-12-26T01:29:40;11.20;99.90
17879;DHT22;9065;51.050;13.758;2022-12-26T01:32:11;11.20;99.90
17879;DHT22;9065;51.050;13.758;2022-12-26T01:34:39;11.20;99.90
17879;DHT22;9065;51.050;13.758;2022-12-26T01:37:06;11.20;99.90
17879;DHT22;9065;51.050;13.758;2022-12-26T01:39:33;11.20;99.90
17879;DHT22;9065;51.050;13.758;2022-12-26T01:42:01;11.20;99.90
17879;DHT22;9065;51.050;13.758;2022-12-26T01:44:54;11.20;99.90
17879;DHT22;9065;51.050;13.758;2022-12-26T01:47:27;11.20;99.90
17879;DHT22;9065;51.050;13.758;2022-12-26T01:49:58;11.20;99.90
17879;DHT22;9065;51.050;13.758;2022-12-26T01:52:29;11.20;99.90
17879;DHT22;9065;51.050;13.758;2022-12-26T01:54:57;11.20;99.90
17879;DHT22;9065;51.050;13.758;2022-12-26T01:57:28;11.20;99.90
17879;DHT22;9065;51.050;13.758;2022-12-26T01:59:57;11.20;99.90
17879;DHT22;9065;51.050;13.758;2022-12-26T02:02:26;11.20;99.90
17879;DHT22;9065;51.050;13.758;2022-12-26T02:04:55;11.20;99.90
17879;DHT22;9065;51.050;13.758;2022-12-26T02:07:43;11.30;99.90
17879;DHT22;9065;51.050;13.758;2022-12-26T02:10:15;11.20;99.90
17879;DHT22;9065;51.050;13.758;2022-12-26T02:12:43;11.20;99.90
17879;DHT22;9065;51.050;13.758;2022-12-26T02:15:12;11.40;99.90
17879;DHT22;9065;51.050;13.758;2022-12-26T02:17:41;11.30;99.90
17879;DHT22;9065;51.050;13.758;2022-12-26T02:20:18;11.30;99.90
17879;DHT22;9065;51.050;13.758;2022-12-26T02:26:16;11.20;99.90
17879;DHT22;9065;51.050;13.758;2022-12-26T02:29:14;11.20;99.90
17879;DHT22;9065;51.050;13.758;2022-12-26T02:31:48;11.10;99.90
17879;DHT22;9065;51.050;13.758;2022-12-26T02:34:21;11.10;99.90
17879;DHT22;9065;51.050;13.758;2022-12-26T02:37:10;11.10;99.90
17879;DHT22;9065;51.050;13.758;2022-12-26T02:39:55;11.10;99.90
17879;DHT22;9065;51.050;13.758;2022-12-26T02:42:32;11.20;99.90
17879;DHT22;9065;51.050;13.758;2022-12-26T02:45:14;11.20;99.90
17879;DHT22;9065;51.050;13.758;2022-12-26T02:48:05;11.10;99.90
17879;DHT22;9065;51.050;13.758;2022-12-26T02:50:45;11.20;99.90
17879;DHT22;9065;51.050;13.758;2022-12-26T02:53:38;11.20;99.90
17879;DHT22;9065;51.050;13.758;2022-12-26T02:56:32;11.20;99.90
17879;DHT22;9065;51.050;13.758;2022-12-26T02:59:29;11.20;99.90
17879;DHT22;9065;51.050;13.758;2022-12-26T03:02:21;11.20;99.90
17879;DHT22;9065;51.050;13.758;2022-12-26T03:05:20;11.40;99.90
17879;DHT22;9065;51.050;13.758;2022-12-26T03:08:09;11.40;99.90
17879;DHT22;9065;51.050;13.758;2022-12-26T03:10:57;11.40;99.90
17879;DHT22;9065;51.050;13.758;2022-12-26T03:13:44;11.30;99.90
17879;DHT22;9065;51.050;13.758;2022-12-26T03:16:11;11.30;99.90
17879;DHT22;9065;51.050;13.758;2022-12-26T03:19:00;11.30;99.90
17879;DHT22;9065;51.050;13.758;2022-12-26T03:21:32;11.20;99.90
17879;DHT22;9065;51.050;13.758;2022-12-26T03:24:00;11.20;99.90
17879;DHT22;9065;51.050;13.758;2022-12-26T03:26:31;11.20;99.90
17879;DHT22;9065;51.050;13.758;2022-12-26T03:29:10;11.20;99.90
17879;DHT22;9065;51.050;13.758;2022-12-26T03:31:56;11.20;99.90
17879;DHT22;9065;51.050;13.758;2022-12-26T03:34:25;11.20;99.90
17879;DHT22;9065;51.050;13.758;2022-12-26T03:37:22;11.20;99.90
17879;DHT22;9065;51.050;13.758;2022-12-26T03:40:07;11.20;99.90
17879;DHT22;9065;51.050;13.758;2022-12-26T03:43:03;11.30;99.90
17879;DHT22;9065;51.050;13.758;2022-12-26T03:45:57;11.40;99.90
17879;DHT22;9065;51.050;13.758;2022-12-26T03:48:51;11.40;99.90
17879;DHT22;9065;51.050;13.758;2022-12-26T03:51:43;11.50;99.90
17879;DHT22;9065;51.050;13.758;2022-12-26T03:54:34;11.50;99.90
17879;DHT22;9065;51.050;13.758;2022-12-26T03:57:24;11.50;99.90
17879;DHT22;9065;51.050;13.758;2022-12-26T04:00:14;11.40;99.90
17879;DHT22;9065;51.050;13.758;2022-12-26T04:03:03;11.40;99.90
17879;DHT22;9065;51.050;13.758;2022-12-26T04:05:51;11.40;99.90
17879;DHT22;9065;51.050;13.758;2022-12-26T04:08:43;11.40;99.90
17879;DHT22;9065;51.050;13.758;2022-12-26T04:11:31;11.40;99.90
17879;DHT22;9065;51.050;13.758;2022-12-26T04:14:25;11.40;99.90
17879;DHT22;9065;51.050;13.758;2022-12-26T04:17:20;11.40;99.90
17879;DHT22;9065;51.050;13.758;2022-12-26T04:20:11;11.30;99.90
17879;DHT22;9065;51.050;13.758;2022-12-26T04:22:43;11.30;99.90
17879;DHT22;9065;51.050;13.758;2022-12-26T04:25:31;11.20;99.90
17879;DHT22;9065;51.050;13.758;2022-12-26T04:28:20;11.20;99.90
17879;DHT22;9065;51.050;13.758;2022-12-26T04:31:15;11.30;99.90
17879;DHT22;9065;51.050;13.758;2022-12-26T04:34:07;11.40;99.90
17879;DHT22;9065;51.050;13.758;2022-12-26T04:36:56;11.40;99.90
17879;DHT22;9065;51.050;13.758;2022-12-26T04:39:44;11.40;99.90
17879;DHT22;9065;51.050;13.758;2022-12-26T04:42:31;11.40;99.90
17879;DHT22;9065;51.050;13.758;2022-12-26T04:45:18;11.40;99.90
17879;DHT22;9065;51.050;13.758;2022-12-26T04:47:46;11.60;99.90
17879;DHT22;9065;51.050;13.758;2022-12-26T04:50:26;11.70;99.90
17879;DHT22;9065;51.050;13.758;2022-12-26T04:52:53;11.90;99.90
17879;DHT22;9065;51.050;13.758;2022-12-26T04:55:27;12.10;99.90
17879;DHT22;9065;51.050;13.758;2022-12-26T04:57:54;12.30;99.90
17879;DHT22;9065;51.050;13.758;2022-12-26T05:00:25;12.40;99.90
17879;DHT22;9065;51.050;13.758;2022-12-26T05:02:52;12.60;99.90
17879;DHT22;9065;51.050;13.758;2022-12-26T05:05:39;12.70;99.90
17879;DHT22;9065;51.050;13.758;2022-12-26T05:08:32;12.90;99.90
17879;DHT22;9065;51.050;13.758;2022-12-26T05:11:16;13.00;99.90
17879;DHT22;9065;51.050;13.758;2022-12-26T05:13:43;13.20;99.90
17879;DHT22;9065;51.050;13.758;2022-12-26T05:16:12;13.30;99.90
17879;DHT22;9065;51.050;13.758;2022-12-26T05:18:56;13.50;99.90
17879;DHT22;9065;51.050;13.758;2022-12-26T05:21:41;13.60;99.90
17879;DHT22;9065;51.050;13.758;2022-12-26T05:24:33;13.60;99.90
17879;DHT22;9065;51.050;13.758;2022-12-26T05:27:19;13.80;99.90
17879;DHT22;9065;51.050;13.758;2022-12-26T05:30:05;13.80;99.90
17879;DHT22;9065;51.050;13.758;2022-12-26T05:32:33;13.80;99.90
17879;DHT22;9065;51.050;13.758;2022-12-26T05:35:17;13.80;99.90
17879;DHT22;9065;51.050;13.758;2022-12-26T05:37:45;13.90;99.90
17879;DHT22;9065;51.050;13.758;2022-12-26T05:40:11;13.90;99.90
17879;DHT22;9065;51.050;13.758;2022-12-26T05:42:38;14.00;99.90
17879;DHT22;9065;51.050;13.758;2022-12-26T05:45:06;14.00;99.90
17879;DHT22;9065;51.050;13.758;2022-12-26T05:47:35;14.00;99.90
17879;DHT22;9065;51.050;13.758;2022-12-26T05:50:02;14.00;99.90
17879;DHT22;9065;51.050;13.758;2022-12-26T05:52:28;14.10;99.90
17879;DHT22;9065;51.050;13.758;2022-12-26T05:54:55;14.10;99.90
17879;DHT22;9065;51.050;13.758;2022-12-26T05:57:22;14.10;99.90
17879;DHT22;9065;51.050;13.758;2022-12-26T05:59:49;14.10;99.90
17879;DHT22;9065;51.050;13.758;2022-12-26T06:02:21;14.10;99.90
17879;DHT22;9065;51.050;13.758;2022-12-26T06:04:51;14.00;99.90
17879;DHT22;9065;51.050;13.758;2022-12-26T06:07:17;14.10;99.90
17879;DHT22;9065;51.050;13.758;2022-12-26T06:09:44;14.00;99.90
17879;DHT22;9065;51.050;13.758;2022-12-26T06:12:11;14.00;99.90
17879;DHT22;9065;51.050;13.758;2022-12-26T06:14:38;14.00;99.90
17879;DHT22;9065;51.050;13.758;2022-12-26T06:17:05;14.00;99.90
17879;DHT22;9065;51.050;13.758;2022-12-26T06:19:32;14.00;99.90
17879;DHT22;9065;51.050;13.758;2022-12-26T06:22:00;14.00;99.90
17879;DHT22;9065;51.050;13.758;2022-12-26T06:24:28;14.10;99.90
17879;DHT22;9065;51.050;13.758;2022-12-26T06:26:55;14.10;99.90
17879;DHT22;9065;51.050;13.758;2022-12-26T06:29:22;14.20;99.90
17879;DHT22;9065;51.050;13.758;2022-12-26T06:31:51;14.10;99.90
17879;DHT22;9065;51.050;13.758;2022-12-26T06:34:18;14.10;99.90
17879;DHT22;9065;51.050;13.758;2022-12-26T06:36:44;14.20;99.90
17879;DHT22;9065;51.050;13.758;2022-12-26T06:39:14;14.10;99.90
17879;DHT22;9065;51.050;13.758;2022-12-26T06:41:42;14.10;99.90
17879;DHT22;9065;51.050;13.758;2022-12-26T06:44:09;14.10;99.90
17879;DHT22;9065;51.050;13.758;2022-12-26T06:46:37;14.20;99.90
17879;DHT22;9065;51.050;13.758;2022-12-26T06:49:03;14.20;99.90
17879;DHT22;9065;51.050;13.758;2022-12-26T06:51:33;14.20;99.90
17879;DHT22;9065;51.050;13.758;2022-12-26T06:54:02;14.20;99.90
17879;DHT22;9065;51.050;13.758;2022-12-26T06:56:32;14.20;99.90
17879;DHT22;9065;51.050;13.758;2022-12-26T06:59:01;14.10;99.90
17879;DHT22;9065;51.050;13.758;2022-12-26T07:01:31;14.20;99.90
17879;DHT22;9065;51.050;13.758;2022-12-26T07:03:59;14.20;99.90
17879;DHT22;9065;51.050;13.758;2022-12-26T07:06:27;14.10;99.90
17879;DHT22;9065;51.050;13.758;2022-12-26T07:08:56;14.20;99.90
17879;DHT22;9065;51.050;13.758;2022-12-26T07:11:26;14.10;99.90
17879;DHT22;9065;51.050;13.758;2022-12-26T07:13:55;14.00;99.90
17879;DHT22;9065;51.050;13.758;2022-12-26T07:16:22;14.10;99.90
17879;DHT22;9065;51.050;13.758;2022-12-26T07:18:51;14.00;99.90
17879;DHT22;9065;51.050;13.758;2022-12-26T07:21:18;14.00;99.90
17879;DHT22;9065;51.050;13.758;2022-12-26T07:23:45;14.00;99.90
17879;DHT22;9065;51.050;13.758;2022-12-26T07:26:12;14.00;99.90
17879;DHT22;9065;51.050;13.758;2022-12-26T07:28:39;14.00;99.90
17879;DHT22;9065;51.050;13.758;2022-12-26T07:31:16;14.00;99.90
17879;DHT22;9065;51.050;13.758;2022-12-26T07:33:46;14.00;99.90
17879;DHT22;9065;51.050;13.758;2022-12-26T07:36:12;14.00;99.90
17879;DHT22;9065;51.050;13.758;2022-12-26T07:38:41;14.00;99.90
17879;DHT22;9065;51.050;13.758;2022-12-26T07:41:08;13.90;99.90
17879;DHT22;9065;51.050;13.758;2022-12-26T07:43:50;13.80;99.90
17879;DHT22;9065;51.050;13.758;2022-12-26T07:46:19;13.80;99.90
17879;DHT22;9065;51.050;13.758;2022-12-26T07:48:46;13.80;99.90
17879;DHT22;9065;51.050;13.758;2022-12-26T07:51:12;13.80;99.90
17879;DHT22;9065;51.050;13.758;2022-12-26T07:53:40;13.80;99.90
17879;DHT22;9065;51.050;13.758;2022-12-26T07:56:07;13.80;99.90
17879;DHT22;9065;51.050;13.758;2022-12-26T07:58:34;13.80;99.90
17879;DHT22;9065;51.050;13.758;2022-12-26T08:01:02;14.00;99.90
17879;DHT22;9065;51.050;13.758;2022-12-26T08:03:31;14.10;99.90
17879;DHT22;9065;51.050;13.758;2022-12-26T08:05:58;14.10;99.90
17879;DHT22;9065;51.050;13.758;2022-12-26T08:08:25;14.10;99.90
17879;DHT22;9065;51.050;13.758;2022-12-26T08:10:58;14.10;99.90
17879;DHT22;9065;51.050;13.758;2022-12-26T08:13:26;14.10;99.90
17879;DHT22;9065;51.050;13.758;2022-12-26T08:15:54;14.20;99.90
17879;DHT22;9065;51.050;13.758;2022-12-26T08:18:24;14.30;99.90
17879;DHT22;9065;51.050;13.758;2022-12-26T08:20:52;14.50;99.90
17879;DHT22;9065;51.050;13.758;2022-12-26T08:23:18;14.50;99.90
17879;DHT22;9065;51.050;13.758;2022-12-26T08:25:45;14.60;99.90
17879;DHT22;9065;51.050;13.758;2022-12-26T08:28:13;14.60;99.90
17879;DHT22;9065;51.050;13.758;2022-12-26T08:30:40;14.70;99.90
17879;DHT22;9065;51.050;13.758;2022-12-26T08:33:08;14.70;99.90
17879;DHT22;9065;51.050;13.758;2022-12-26T08:35:38;14.80;99.90
17879;DHT22;9065;51.050;13.758;2022-12-26T08:38:07;14.80;99.90
17879;DHT22;9065;51.050;13.758;2022-12-26T08:40:34;14.80;99.90
17879;DHT22;9065;51.050;13.758;2022-12-26T08:43:00;14.70;99.90
17879;DHT22;9065;51.050;13.758;2022-12-26T08:45:30;14.70;99.90
17879;DHT22;9065;51.050;13.758;2022-12-26T08:47:58;14.70;99.90
17879;DHT22;9065;51.050;13.758;2022-12-26T08:50:27;14.70;99.90
17879;DHT22;9065;51.050;13.758;2022-12-26T08:52:54;14.80;99.90
17879;DHT22;9065;51.050;13.758;2022-12-26T08:55:22;14.80;99.90
17879;DHT22;9065;51.050;13.758;2022-12-26T08:57:50;14.80;99.90
17879;DHT22;9065;51.050;13.758;2022-12-26T09:00:18;14.80;99.90
17879;DHT22;9065;51.050;13.758;2022-12-26T09:02:48;14.90;99.90
17879;DHT22;9065;51.050;13.758;2022-12-26T09:05:14;15.00;99.90
17879;DHT22;9065;51.050;13.758;2022-12-26T09:07:41;15.00;99.90
17879;DHT22;9065;51.050;13.758;2022-12-26T09:10:09;15.10;99.90
17879;DHT22;9065;51.050;13.758;2022-12-26T09:12:38;15.10;99.90
17879;DHT22;9065;51.050;13.758;2022-12-26T09:15:06;15.20;99.90
17879;DHT22;9065;51.050;13.758;2022-12-26T09:17:33;15.30;99.90
17879;DHT22;9065;51.050;13.758;2022-12-26T09:20:00;15.30;99.90
17879;DHT22;9065;51.050;13.758;2022-12-26T09:22:27;15.40;99.90
17879;DHT22;9065;51.050;13.758;2022-12-26T09:25:08;15.60;99.90
17879;DHT22;9065;51.050;13.758;2022-12-26T09:27:35;15.80;99.90
17879;DHT22;9065;51.050;13.758;2022-12-26T09:30:04;15.90;99.90
17879;DHT22;9065;51.050;13.758;2022-12-26T09:32:32;16.10;99.90
17879;DHT22;9065;51.050;13.758;2022-12-26T09:34:59;16.70;99.90
17879;DHT22;9065;51.050;13.758;2022-12-26T09:37:27;17.70;99.90
17879;DHT22;9065;51.050;13.758;2022-12-26T09:39:54;18.80;99.90
17879;DHT22;9065;51.050;13.758;2022-12-26T09:42:27;19.00;99.90
17879;DHT22;9065;51.050;13.758;2022-12-26T09:44:59;18.80;99.90
17879;DHT22;9065;51.050;13.758;2022-12-26T09:47:40;18.20;99.90
17879;DHT22;9065;51.050;13.758;2022-12-26T09:50:12;17.60;99.90
17879;DHT22;9065;51.050;13.758;2022-12-26T09:52:53;17.20;99.90
17879;DHT22;9065;51.050;13.758;2022-12-26T09:55:28;17.10;99.90
17879;DHT22;9065;51.050;13.758;2022-12-26T09:58:03;16.90;99.90
17879;DHT22;9065;51.050;13.758;2022-12-26T10:00:35;16.70;99.90
17879;DHT22;9065;51.050;13.758;2022-12-26T10:03:07;16.60;99.90
17879;DHT22;9065;51.050;13.758;2022-12-26T10:05:38;16.50;99.90
17879;DHT22;9065;51.050;13.758;2022-12-26T10:08:16;16.30;99.90
17879;DHT22;9065;51.050;13.758;2022-12-26T10:10:49;16.10;99.90
17879;DHT22;9065;51.050;13.758;2022-12-26T10:13:27;16.10;99.90
17879;DHT22;9065;51.050;13.758;2022-12-26T10:16:03;16.10;99.90
17879;DHT22;9065;51.050;13.758;2022-12-26T10:18:37;16.00;99.90
17879;DHT22;9065;51.050;13.758;2022-12-26T10:21:28;15.80;99.90
17879;DHT22;9065;51.050;13.758;2022-12-26T10:24:10;15.60;99.90
17879;DHT22;9065;51.050;13.758;2022-12-26T10:26:40;15.70;99.90
17879;DHT22;9065;51.050;13.758;2022-12-26T10:29:15;15.80;99.90
17879;DHT22;9065;51.050;13.758;2022-12-26T10:31:48;15.70;99.90
17879;DHT22;9065;51.050;13.758;2022-12-26T10:34:20;15.70;99.90
17879;DHT22;9065;51.050;13.758;2022-12-26T10:36:50;15.60;99.90
17879;DHT22;9065;51.050;13.758;2022-12-26T10:39:23;15.50;99.90
17879;DHT22;9065;51.050;13.758;2022-12-26T10:41:55;15.60;99.90
17879;DHT22;9065;51.050;13.758;2022-12-26T10:44:23;15.70;99.90
17879;DHT22;9065;51.050;13.758;2022-12-26T10:47:07;15.80;99.90
17879;DHT22;9065;51.050;13.758;2022-12-26T10:49:44;15.90;99.90
17879;DHT22;9065;51.050;13.758;2022-12-26T10:52:11;16.00;99.90
17879;DHT22;9065;51.050;13.758;2022-12-26T10:54:41;16.10;99.90
17879;DHT22;9065;51.050;13.758;2022-12-26T10:57:09;16.20;99.90
17879;DHT22;9065;51.050;13.758;2022-12-26T10:59:39;16.70;99.90
17879;DHT22;9065;51.050;13.758;2022-12-26T11:02:20;17.40;99.90
17879;DHT22;9065;51.050;13.758;2022-12-26T11:05:08;17.70;99.90
17879;DHT22;9065;51.050;13.758;2022-12-26T11:07:37;17.50;99.90
17879;DHT22;9065;51.050;13.758;2022-12-26T11:10:16;17.50;99.90
17879;DHT22;9065;51.050;13.758;2022-12-26T11:12:46;17.50;99.90
17879;DHT22;9065;51.050;13.758;2022-12-26T11:15:22;17.50;99.90
17879;DHT22;9065;51.050;13.758;2022-12-26T11:17:51;17.70;99.90
17879;DHT22;9065;51.050;13.758;2022-12-26T11:20:27;17.60;99.90
17879;DHT22;9065;51.050;13.758;2022-12-26T11:25:57;17.50;99.90
17879;DHT22;9065;51.050;13.758;2022-12-26T11:28:30;17.40;99.90
17879;DHT22;9065;51.050;13.758;2022-12-26T11:30:58;17.40;99.90
17879;DHT22;9065;51.050;13.758;2022-12-26T11:33:28;17.40;99.90
17879;DHT22;9065;51.050;13.758;2022-12-26T11:36:04;17.40;99.90
17879;DHT22;9065;51.050;13.758;2022-12-26T11:38:44;17.20;99.90
17879;DHT22;9065;51.050;13.758;2022-12-26T11:41:15;17.40;99.90
17879;DHT22;9065;51.050;13.758;2022-12-26T11:44:03;17.50;99.90
17879;DHT22;9065;51.050;13.758;2022-12-26T11:46:35;17.40;99.90
17879;DHT22;9065;51.050;13.758;2022-12-26T11:49:16;17.20;99.90
17879;DHT22;9065;51.050;13.758;2022-12-26T11:51:48;17.00;99.90
17879;DHT22;9065;51.050;13.758;2022-12-26T11:54:20;16.90;99.90
17879;DHT22;9065;51.050;13.758;2022-12-26T11:57:01;16.90;99.90
17879;DHT22;9065;51.050;13.758;2022-12-26T11:59:28;16.80;99.90
17879;DHT22;9065;51.050;13.758;2022-12-26T12:02:23;16.80;99.90
17879;DHT22;9065;51.050;13.758;2022-12-26T12:05:03;16.50;99.90
17879;DHT22;9065;51.050;13.758;2022-12-26T12:07:51;16.30;99.90
17879;DHT22;9065;51.050;13.758;2022-12-26T12:10:41;16.30;99.90
17879;DHT22;9065;51.050;13.758;2022-12-26T12:13:24;16.20;99.90
17879;DHT22;9065;51.050;13.758;2022-12-26T12:16:01;16.10;99.90
17879;DHT22;9065;51.050;13.758;2022-12-26T12:18:37;16.00;99.90
17879;DHT22;9065;51.050;13.758;2022-12-26T12:21:16;15.80;99.90
17879;DHT22;9065;51.050;13.758;2022-12-26T12:23:54;15.80;99.90
17879;DHT22;9065;51.050;13.758;2022-12-26T12:26:35;15.60;99.90
17879;DHT22;9065;51.050;13.758;2022-12-26T12:29:20;15.60;99.90
17879;DHT22;9065;51.050;13.758;2022-12-26T12:32:06;15.50;99.90
17879;DHT22;9065;51.050;13.758;2022-12-26T12:34:49;15.40;99.90
17879;DHT22;9065;51.050;13.758;2022-12-26T12:37:27;15.40;99.90
17879;DHT22;9065;51.050;13.758;2022-12-26T12:40:05;15.30;99.90
17879;DHT22;9065;51.050;13.758;2022-12-26T12:42:43;15.20;99.90
17879;DHT22;9065;51.050;13.758;2022-12-26T12:45:23;15.20;99.90
17879;DHT22;9065;51.050;13.758;2022-12-26T12:48:07;15.10;99.90
17879;DHT22;9065;51.050;13.758;2022-12-26T12:50:43;15.10;99.90
17879;DHT22;9065;51.050;13.758;2022-12-26T12:53:24;15.00;99.90
17879;DHT22;9065;51.050;13.758;2022-12-26T12:56:09;15.00;99.90
17879;DHT22;9065;51.050;13.758;2022-12-26T12:58:45;15.00;99.90
17879;DHT22;9065;51.050;13.758;2022-12-26T13:01:19;15.00;99.90
17879;DHT22;9065;51.050;13.758;2022-12-26T13:04:00;15.10;99.90
17879;DHT22;9065;51.050;13.758;2022-12-26T13:06:33;14.80;99.90
17879;DHT22;9065;51.050;13.758;2022-12-26T13:09:04;14.80;99.90
17879;DHT22;9065;51.050;13.758;2022-12-26T13:11:36;14.70;99.90
17879;DHT22;9065;51.050;13.758;2022-12-26T13:14:07;14.60;99.90
17879;DHT22;9065;51.050;13.758;2022-12-26T13:16:40;14.30;99.90
17879;DHT22;9065;51.050;13.758;2022-12-26T13:19:15;13.90;99.90
17879;DHT22;9065;51.050;13.758;2022-12-26T13:21:43;13.60;99.90
17879;DHT22;9065;51.050;13.758;2022-12-26T13:24:14;13.30;99.90
17879;DHT22;9065;51.050;13.758;2022-12-26T13:26:58;13.00;99.90
17879;DHT22;9065;51.050;13.758;2022-12-26T13:29:34;12.90;99.90
17879;DHT22;9065;51.050;13.758;2022-12-26T13:32:02;12.80;99.90
17879;DHT22;9065;51.050;13.758;2022-12-26T13:34:36;12.70;99.90
17879;DHT22;9065;51.050;13.758;2022-12-26T13:37:04;12.70;99.90
17879;DHT22;9065;51.050;13.758;2022-12-26T13:39:37;12.70;99.90
17879;DHT22;9065;51.050;13.758;2022-12-26T13:42:28;12.70;99.90
17879;DHT22;9065;51.050;13.758;2022-12-26T13:51:50;12.80;99.90
17879;DHT22;9065;51.050;13.758;2022-12-26T13:54:18;12.80;99.90
17879;DHT22;9065;51.050;13.758;2022-12-26T13:57:33;12.60;99.90
17879;DHT22;9065;51.050;13.758;2022-12-26T14:00:17;12.50;99.90
17879;DHT22;9065;51.050;13.758;2022-12-26T14:03:19;12.50;99.90
17879;DHT22;9065;51.050;13.758;2022-12-26T14:06:22;12.50;99.90
17879;DHT22;9065;51.050;13.758;2022-12-26T14:09:12;12.50;99.90
17879;DHT22;9065;51.050;13.758;2022-12-26T14:11:51;12.40;99.90
17879;DHT22;9065;51.050;13.758;2022-12-26T14:14:35;12.30;99.90
17879;DHT22;9065;51.050;13.758;2022-12-26T14:17:12;12.10;99.90
17879;DHT22;9065;51.050;13.758;2022-12-26T14:19:51;12.20;99.90
17879;DHT22;9065;51.050;13.758;2022-12-26T14:22:24;12.10;99.90
17879;DHT22;9065;51.050;13.758;2022-12-26T14:25:01;11.90;99.90
17879;DHT22;9065;51.050;13.758;2022-12-26T14:27:38;11.90;99.90
17879;DHT22;9065;51.050;13.758;2022-12-26T14:30:19;11.90;99.90
17879;DHT22;9065;51.050;13.758;2022-12-26T14:33:06;11.90;99.90
17879;DHT22;9065;51.050;13.758;2022-12-26T14:35:43;11.80;99.90
17879;DHT22;9065;51.050;13.758;2022-12-26T14:38:22;11.70;99.90
17879;DHT22;9065;51.050;13.758;2022-12-26T14:41:00;11.60;99.90
17879;DHT22;9065;51.050;13.758;2022-12-26T14:43:33;11.70;99.90
17879;DHT22;9065;51.050;13.758;2022-12-26T14:46:08;11.70;99.90
17879;DHT22;9065;51.050;13.758;2022-12-26T14:48:56;11.60;99.90
17879;DHT22;9065;51.050;13.758;2022-12-26T14:51:29;11.70;99.90
17879;DHT22;9065;51.050;13.758;2022-12-26T14:56:59;11.70;99.90
17879;DHT22;9065;51.050;13.758;2022-12-26T14:59:29;11.60;99.90
17879;DHT22;9065;51.050;13.758;2022-12-26T15:02:09;11.70;99.90
17879;DHT22;9065;51.050;13.758;2022-12-26T15:05:00;11.70;99.90
17879;DHT22;9065;51.050;13.758;2022-12-26T15:08:05;11.80;99.90
17879;DHT22;9065;51.050;13.758;2022-12-26T15:11:02;11.80;99.90
17879;DHT22;9065;51.050;13.758;2022-12-26T15:14:03;11.90;99.90
17879;DHT22;9065;51.050;13.758;2022-12-26T15:16:48;11.80;99.90
17879;DHT22;9065;51.050;13.758;2022-12-26T15:19:59;11.80;99.90
17879;DHT22;9065;51.050;13.758;2022-12-26T15:22:46;11.70;99.90
17879;DHT22;9065;51.050;13.758;2022-12-26T15:25:38;11.70;99.90
17879;DHT22;9065;51.050;13.758;2022-12-26T15:28:38;11.70;99.90
17879;DHT22;9065;51.050;13.758;2022-12-26T15:31:45;11.90;99.90
17879;DHT22;9065;51.050;13.758;2022-12-26T15:37:23;11.90;99.90
17879;DHT22;9065;51.050;13.758;2022-12-26T15:40:04;12.00;99.90
17879;DHT22;9065;51.050;13.758;2022-12-26T15:42:44;12.00;99.90
17879;DHT22;9065;51.050;13.758;2022-12-26T15:45:23;11.90;99.90
17879;DHT22;9065;51.050;13.758;2022-12-26T15:47:58;11.70;99.90
17879;DHT22;9065;51.050;13.758;2022-12-26T15:50:28;11.70;99.90
17879;DHT22;9065;51.050;13.758;2022-12-26T15:53:08;11.60;99.90
17879;DHT22;9065;51.050;13.758;2022-12-26T15:55:56;11.50;99.90
17879;DHT22;9065;51.050;13.758;2022-12-26T15:58:40;11.40;99.90
17879;DHT22;9065;51.050;13.758;2022-12-26T16:01:10;11.40;99.90
17879;DHT22;9065;51.050;13.758;2022-12-26T16:03:41;11.40;99.90
17879;DHT22;9065;51.050;13.758;2022-12-26T16:06:26;11.50;99.90
17879;DHT22;9065;51.050;13.758;2022-12-26T16:11:53;11.60;99.90
17879;DHT22;9065;51.050;13.758;2022-12-26T16:14:29;11.50;99.90
17879;DHT22;9065;51.050;13.758;2022-12-26T16:17:15;11.50;99.90
17879;DHT22;9065;51.050;13.758;2022-12-26T16:19:44;11.50;99.90
17879;DHT22;9065;51.050;13.758;2022-12-26T16:22:22;11.50;99.90
17879;DHT22;9065;51.050;13.758;2022-12-26T16:25:11;11.60;99.90
17879;DHT22;9065;51.050;13.758;2022-12-26T16:27:40;11.60;99.90
17879;DHT22;9065;51.050;13.758;2022-12-26T16:30:14;11.50;99.90
17879;DHT22;9065;51.050;13.758;2022-12-26T16:32:42;11.50;99.90
17879;DHT22;9065;51.050;13.758;2022-12-26T16:35:19;11.50;99.90
17879;DHT22;9065;51.050;13.758;2022-12-26T16:37:47;11.50;99.90
17879;DHT22;9065;51.050;13.758;2022-12-26T16:40:21;11.40;99.90
17879;DHT22;9065;51.050;13.758;2022-12-26T16:42:58;11.40;99.90